sensor_id;sensor_type;location;lat;lon;timestamp;P1;durP1;ratioP1;P2;durP2;ratioP2
37449;SDS011;23309;52.582;13.406;2023-02-08T00:01:06;66.07;;;33.92;;
37449;SDS011;23309;52.582;13.406;2023-02-08T00:03:33;63.63;;;35.33;;
37449;SDS011;23309;52.582;13.406;2023-02-08T00:05:59;61.20;;;33.77;;
37449;SDS011;23309;52.582;13.406;2023-02-08T00:08:25;56.03;;;31.93;;
37449;SDS011;23309;52.582;13.406;2023-02-08T00:10:50;53.87;;;31.07;;
37449;SDS011;23309;52.582;13.406;2023-02-08T00:13:16;61.07;;;33.60;;
37449;SDS011;23309;52.582;13.406;2023-02-08T00:15:42;63.73;;;32.77;;
37449;SDS011;23309;52.582;13.406;2023-02-08T00:18:09;60.40;;;35.10;;
37449;SDS011;23309;52.582;13.406;2023-02-08T00:20:36;53.53;;;30.30;;
37449;SDS011;23309;52.582;13.406;2023-02-08T00:23:03;56.88;;;31.38;;
37449;SDS011;23309;52.582;13.406;2023-02-08T00:25:28;58.33;;;29.37;;
37449;SDS011;23309;52.582;13.406;2023-02-08T00:27:54;51.77;;;30.47;;
37449;SDS011;23309;52.582;13.406;2023-02-08T00:30:19;53.83;;;29.70;;
37449;SDS011;23309;52.582;13.406;2023-02-08T00:32:45;52.57;;;29.33;;
37449;SDS011;23309;52.582;13.406;2023-02-08T00:35:11;56.80;;;31.60;;
37449;SDS011;23309;52.582;13.406;2023-02-08T00:37:36;57.20;;;31.80;;
37449;SDS011;23309;52.582;13.406;2023-02-08T00:40:02;47.83;;;28.47;;
37449;SDS011;23309;52.582;13.406;2023-02-08T00:42:29;56.17;;;29.90;;
37449;SDS011;23309;52.582;13.406;2023-02-08T00:44:55;57.53;;;30.70;;
37449;SDS011;23309;52.582;13.406;2023-02-08T00:47:21;50.10;;;30.23;;
37449;SDS011;23309;52.582;13.406;2023-02-08T00:49:47;50.97;;;29.00;;
37449;SDS011;23309;52.582;13.406;2023-02-08T00:52:13;51.30;;;29.50;;
37449;SDS011;23309;52.582;13.406;2023-02-08T00:54:38;47.77;;;27.53;;
37449;SDS011;23309;52.582;13.406;2023-02-08T00:57:05;49.88;;;29.38;;
37449;SDS011;23309;52.582;13.406;2023-02-08T00:59:31;48.63;;;29.03;;
37449;SDS011;23309;52.582;13.406;2023-02-08T01:01:57;48.10;;;29.00;;
37449;SDS011;23309;52.582;13.406;2023-02-08T01:04:22;51.47;;;29.83;;
37449;SDS011;23309;52.582;13.406;2023-02-08T01:06:48;44.20;;;28.50;;
37449;SDS011;23309;52.582;13.406;2023-02-08T01:09:13;55.23;;;28.47;;
37449;SDS011;23309;52.582;13.406;2023-02-08T01:11:39;50.37;;;28.17;;
37449;SDS011;23309;52.582;13.406;2023-02-08T01:14:04;54.30;;;31.20;;
37449;SDS011;23309;52.582;13.406;2023-02-08T01:16:31;53.07;;;28.87;;
37449;SDS011;23309;52.582;13.406;2023-02-08T01:18:58;52.95;;;29.90;;
37449;SDS011;23309;52.582;13.406;2023-02-08T01:21:29;46.92;;;28.50;;
37449;SDS011;23309;52.582;13.406;2023-02-08T01:23:59;54.67;;;30.20;;
37449;SDS011;23309;52.582;13.406;2023-02-08T01:26:25;55.25;;;30.55;;
37449;SDS011;23309;52.582;13.406;2023-02-08T01:28:52;50.15;;;29.30;;
37449;SDS011;23309;52.582;13.406;2023-02-08T01:31:20;56.17;;;31.98;;
37449;SDS011;23309;52.582;13.406;2023-02-08T01:33:48;57.60;;;31.70;;
37449;SDS011;23309;52.582;13.406;2023-02-08T01:36:14;57.40;;;32.37;;
37449;SDS011;23309;52.582;13.406;2023-02-08T01:38:40;59.35;;;32.10;;
37449;SDS011;23309;52.582;13.406;2023-02-08T01:41:07;63.90;;;36.10;;
37449;SDS011;23309;52.582;13.406;2023-02-08T01:46:22;69.95;;;36.63;;
37449;SDS011;23309;52.582;13.406;2023-02-08T01:48:48;60.73;;;32.63;;
37449;SDS011;23309;52.582;13.406;2023-02-08T01:51:14;60.10;;;35.13;;
37449;SDS011;23309;52.582;13.406;2023-02-08T01:53:49;57.15;;;32.13;;
37449;SDS011;23309;52.582;13.406;2023-02-08T01:56:20;54.33;;;31.25;;
37449;SDS011;23309;52.582;13.406;2023-02-08T01:58:56;47.85;;;27.40;;
37449;SDS011;23309;52.582;13.406;2023-02-08T02:01:25;57.55;;;31.98;;
37449;SDS011;23309;52.582;13.406;2023-02-08T02:03:51;48.22;;;28.13;;
37449;SDS011;23309;52.582;13.406;2023-02-08T02:06:20;56.33;;;28.77;;
37449;SDS011;23309;52.582;13.406;2023-02-08T02:08:56;49.75;;;27.83;;
37449;SDS011;23309;52.582;13.406;2023-02-08T02:11:34;48.75;;;28.60;;
37449;SDS011;23309;52.582;13.406;2023-02-08T02:14:00;53.17;;;28.97;;
37449;SDS011;23309;52.582;13.406;2023-02-08T02:16:26;60.03;;;29.40;;
37449;SDS011;23309;52.582;13.406;2023-02-08T02:18:51;46.30;;;27.00;;
37449;SDS011;23309;52.582;13.406;2023-02-08T02:21:21;46.13;;;27.53;;
37449;SDS011;23309;52.582;13.406;2023-02-08T02:24:03;43.47;;;26.75;;
37449;SDS011;23309;52.582;13.406;2023-02-08T02:27:00;47.40;;;27.67;;
37449;SDS011;23309;52.582;13.406;2023-02-08T02:32:36;47.50;;;27.77;;
37449;SDS011;23309;52.582;13.406;2023-02-08T02:40:35;38.95;;;23.85;;
37449;SDS011;23309;52.582;13.406;2023-02-08T02:48:49;42.92;;;25.73;;
37449;SDS011;23309;52.582;13.406;2023-02-08T02:54:16;39.97;;;22.15;;
37449;SDS011;23309;52.582;13.406;2023-02-08T02:56:43;35.05;;;21.85;;
37449;SDS011;23309;52.582;13.406;2023-02-08T02:59:11;34.55;;;21.83;;
37449;SDS011;23309;52.582;13.406;2023-02-08T03:01:38;33.70;;;20.95;;
37449;SDS011;23309;52.582;13.406;2023-02-08T03:04:14;29.75;;;18.80;;
37449;SDS011;23309;52.582;13.406;2023-02-08T03:09:34;28.20;;;17.55;;
37449;SDS011;23309;52.582;13.406;2023-02-08T03:15:16;32.00;;;18.85;;
37449;SDS011;23309;52.582;13.406;2023-02-08T03:17:59;27.88;;;17.63;;
37449;SDS011;23309;52.582;13.406;2023-02-08T03:20:29;32.53;;;19.08;;
37449;SDS011;23309;52.582;13.406;2023-02-08T03:22:59;26.73;;;16.90;;
37449;SDS011;23309;52.582;13.406;2023-02-08T03:28:26;28.08;;;16.55;;
37449;SDS011;23309;52.582;13.406;2023-02-08T03:31:17;25.63;;;16.80;;
37449;SDS011;23309;52.582;13.406;2023-02-08T03:34:05;23.25;;;15.73;;
37449;SDS011;23309;52.582;13.406;2023-02-08T03:36:43;24.55;;;15.60;;
37449;SDS011;23309;52.582;13.406;2023-02-08T03:39:20;24.05;;;14.85;;
37449;SDS011;23309;52.582;13.406;2023-02-08T03:41:48;22.30;;;14.68;;
37449;SDS011;23309;52.582;13.406;2023-02-08T03:44:28;26.02;;;15.20;;
37449;SDS011;23309;52.582;13.406;2023-02-08T03:47:22;25.58;;;15.32;;
37449;SDS011;23309;52.582;13.406;2023-02-08T03:49:48;26.20;;;15.20;;
37449;SDS011;23309;52.582;13.406;2023-02-08T03:52:16;26.50;;;14.77;;
37449;SDS011;23309;52.582;13.406;2023-02-08T03:54:44;23.73;;;14.50;;
37449;SDS011;23309;52.582;13.406;2023-02-08T03:57:16;23.80;;;14.15;;
37449;SDS011;23309;52.582;13.406;2023-02-08T03:59:47;24.70;;;14.25;;
37449;SDS011;23309;52.582;13.406;2023-02-08T04:02:17;26.58;;;15.13;;
37449;SDS011;23309;52.582;13.406;2023-02-08T04:04:45;22.63;;;13.48;;
37449;SDS011;23309;52.582;13.406;2023-02-08T04:07:12;21.40;;;12.90;;
37449;SDS011;23309;52.582;13.406;2023-02-08T04:09:38;21.93;;;13.53;;
37449;SDS011;23309;52.582;13.406;2023-02-08T04:12:03;23.10;;;12.90;;
37449;SDS011;23309;52.582;13.406;2023-02-08T04:14:29;22.53;;;12.80;;
37449;SDS011;23309;52.582;13.406;2023-02-08T04:16:55;21.77;;;13.50;;
37449;SDS011;23309;52.582;13.406;2023-02-08T04:19:21;22.50;;;13.20;;
37449;SDS011;23309;52.582;13.406;2023-02-08T04:21:46;24.23;;;13.30;;
37449;SDS011;23309;52.582;13.406;2023-02-08T04:24:13;20.50;;;13.07;;
37449;SDS011;23309;52.582;13.406;2023-02-08T04:26:38;16.55;;;11.90;;
37449;SDS011;23309;52.582;13.406;2023-02-08T04:29:04;25.33;;;13.33;;
37449;SDS011;23309;52.582;13.406;2023-02-08T04:31:30;21.10;;;12.33;;
37449;SDS011;23309;52.582;13.406;2023-02-08T04:33:55;20.87;;;12.60;;
37449;SDS011;23309;52.582;13.406;2023-02-08T04:36:21;20.23;;;12.70;;
37449;SDS011;23309;52.582;13.406;2023-02-08T04:38:47;20.70;;;12.10;;
37449;SDS011;23309;52.582;13.406;2023-02-08T04:41:12;21.23;;;13.57;;
37449;SDS011;23309;52.582;13.406;2023-02-08T04:43:38;20.47;;;12.13;;
37449;SDS011;23309;52.582;13.406;2023-02-08T04:46:03;21.90;;;12.70;;
37449;SDS011;23309;52.582;13.406;2023-02-08T04:48:29;20.80;;;12.67;;
37449;SDS011;23309;52.582;13.406;2023-02-08T04:50:55;20.77;;;12.20;;
37449;SDS011;23309;52.582;13.406;2023-02-08T04:53:21;18.73;;;12.75;;
37449;SDS011;23309;52.582;13.406;2023-02-08T04:55:47;21.45;;;13.18;;
37449;SDS011;23309;52.582;13.406;2023-02-08T06:55:05;25.67;;;14.30;;
37449;SDS011;23309;52.582;13.406;2023-02-08T06:57:31;21.53;;;13.57;;
37449;SDS011;23309;52.582;13.406;2023-02-08T06:59:57;22.10;;;13.73;;
37449;SDS011;23309;52.582;13.406;2023-02-08T07:02:22;25.63;;;14.90;;
37449;SDS011;23309;52.582;13.406;2023-02-08T07:04:48;24.73;;;13.90;;
37449;SDS011;23309;52.582;13.406;2023-02-08T07:07:14;29.53;;;14.80;;
37449;SDS011;23309;52.582;13.406;2023-02-08T07:09:40;25.35;;;14.93;;
37449;SDS011;23309;52.582;13.406;2023-02-08T07:12:06;24.30;;;14.03;;
37449;SDS011;23309;52.582;13.406;2023-02-08T07:14:33;23.02;;;14.25;;
37449;SDS011;23309;52.582;13.406;2023-02-08T07:17:00;26.90;;;15.15;;
37449;SDS011;23309;52.582;13.406;2023-02-08T07:19:26;24.52;;;14.75;;
37449;SDS011;23309;52.582;13.406;2023-02-08T07:21:52;23.30;;;14.30;;
37449;SDS011;23309;52.582;13.406;2023-02-08T07:24:18;23.33;;;14.27;;
37449;SDS011;23309;52.582;13.406;2023-02-08T07:26:43;23.77;;;14.03;;
37449;SDS011;23309;52.582;13.406;2023-02-08T07:29:09;23.40;;;14.20;;
37449;SDS011;23309;52.582;13.406;2023-02-08T07:31:34;23.20;;;14.00;;
37449;SDS011;23309;52.582;13.406;2023-02-08T07:34:00;26.40;;;14.50;;
37449;SDS011;23309;52.582;13.406;2023-02-08T07:36:25;24.13;;;14.70;;
37449;SDS011;23309;52.582;13.406;2023-02-08T07:38:51;23.60;;;14.20;;
37449;SDS011;23309;52.582;13.406;2023-02-08T07:41:16;26.03;;;14.40;;
37449;SDS011;23309;52.582;13.406;2023-02-08T07:43:42;23.40;;;12.97;;
37449;SDS011;23309;52.582;13.406;2023-02-08T07:46:09;22.90;;;14.30;;
37449;SDS011;23309;52.582;13.406;2023-02-08T07:48:36;26.30;;;13.98;;
37449;SDS011;23309;52.582;13.406;2023-02-08T07:51:02;23.87;;;13.77;;
37449;SDS011;23309;52.582;13.406;2023-02-08T07:53:28;22.27;;;13.23;;
37449;SDS011;23309;52.582;13.406;2023-02-08T07:55:54;24.27;;;14.70;;
37449;SDS011;23309;52.582;13.406;2023-02-08T07:58:19;24.90;;;14.43;;
37449;SDS011;23309;52.582;13.406;2023-02-08T08:00:45;25.03;;;14.37;;
37449;SDS011;23309;52.582;13.406;2023-02-08T08:03:10;31.47;;;15.00;;
37449;SDS011;23309;52.582;13.406;2023-02-08T08:05:38;22.17;;;13.53;;
37449;SDS011;23309;52.582;13.406;2023-02-08T08:08:04;25.15;;;14.05;;
37449;SDS011;23309;52.582;13.406;2023-02-08T08:10:30;26.37;;;13.27;;
37449;SDS011;23309;52.582;13.406;2023-02-08T08:12:55;24.40;;;14.70;;
37449;SDS011;23309;52.582;13.406;2023-02-08T08:15:21;23.10;;;14.70;;
37449;SDS011;23309;52.582;13.406;2023-02-08T08:17:47;22.63;;;14.90;;
37449;SDS011;23309;52.582;13.406;2023-02-08T08:20:12;24.20;;;14.80;;
37449;SDS011;23309;52.582;13.406;2023-02-08T08:22:38;29.43;;;14.93;;
37449;SDS011;23309;52.582;13.406;2023-02-08T08:25:03;23.07;;;14.57;;
37449;SDS011;23309;52.582;13.406;2023-02-08T08:27:29;26.70;;;15.00;;
37449;SDS011;23309;52.582;13.406;2023-02-08T08:29:55;23.67;;;14.90;;
37449;SDS011;23309;52.582;13.406;2023-02-08T08:32:20;20.10;;;13.93;;
37449;SDS011;23309;52.582;13.406;2023-02-08T08:34:46;27.20;;;14.50;;
37449;SDS011;23309;52.582;13.406;2023-02-08T08:37:11;24.60;;;14.23;;
37449;SDS011;23309;52.582;13.406;2023-02-08T08:39:37;24.10;;;14.73;;
37449;SDS011;23309;52.582;13.406;2023-02-08T08:42:02;23.47;;;15.20;;
37449;SDS011;23309;52.582;13.406;2023-02-08T08:44:28;27.87;;;15.50;;
37449;SDS011;23309;52.582;13.406;2023-02-08T08:46:54;24.97;;;14.60;;
37449;SDS011;23309;52.582;13.406;2023-02-08T08:49:21;27.07;;;16.27;;
37449;SDS011;23309;52.582;13.406;2023-02-08T08:51:47;23.97;;;16.50;;
37449;SDS011;23309;52.582;13.406;2023-02-08T08:54:12;24.93;;;15.53;;
37449;SDS011;23309;52.582;13.406;2023-02-08T08:56:38;25.20;;;15.60;;
37449;SDS011;23309;52.582;13.406;2023-02-08T08:59:04;28.53;;;16.73;;
37449;SDS011;23309;52.582;13.406;2023-02-08T09:01:29;27.27;;;16.13;;
37449;SDS011;23309;52.582;13.406;2023-02-08T09:03:55;30.10;;;16.87;;
37449;SDS011;23309;52.582;13.406;2023-02-08T09:06:20;26.80;;;17.77;;
37449;SDS011;23309;52.582;13.406;2023-02-08T09:08:46;28.23;;;15.97;;
37449;SDS011;23309;52.582;13.406;2023-02-08T09:11:12;26.50;;;17.00;;
37449;SDS011;23309;52.582;13.406;2023-02-08T09:13:38;26.83;;;18.20;;
37449;SDS011;23309;52.582;13.406;2023-02-08T09:16:05;27.77;;;18.33;;
37449;SDS011;23309;52.582;13.406;2023-02-08T09:18:32;29.77;;;18.20;;
37449;SDS011;23309;52.582;13.406;2023-02-08T09:20:58;28.60;;;17.10;;
37449;SDS011;23309;52.582;13.406;2023-02-08T09:23:23;28.83;;;18.90;;
37449;SDS011;23309;52.582;13.406;2023-02-08T09:25:49;26.80;;;17.40;;
37449;SDS011;23309;52.582;13.406;2023-02-08T09:28:14;31.03;;;18.13;;
37449;SDS011;23309;52.582;13.406;2023-02-08T09:30:40;26.20;;;17.57;;
37449;SDS011;23309;52.582;13.406;2023-02-08T09:33:05;26.80;;;18.13;;
37449;SDS011;23309;52.582;13.406;2023-02-08T09:35:31;28.00;;;18.60;;
37449;SDS011;23309;52.582;13.406;2023-02-08T09:37:57;27.93;;;19.00;;
37449;SDS011;23309;52.582;13.406;2023-02-08T09:40:27;35.77;;;18.10;;
37449;SDS011;23309;52.582;13.406;2023-02-08T09:46:14;32.07;;;18.30;;
37449;SDS011;23309;52.582;13.406;2023-02-08T09:48:45;27.40;;;18.40;;
37449;SDS011;23309;52.582;13.406;2023-02-08T09:53:47;28.73;;;17.93;;
37449;SDS011;23309;52.582;13.406;2023-02-08T09:56:27;30.13;;;19.80;;
37449;SDS011;23309;52.582;13.406;2023-02-08T09:58:55;27.63;;;17.13;;
37449;SDS011;23309;52.582;13.406;2023-02-08T10:01:26;29.73;;;18.43;;
37449;SDS011;23309;52.582;13.406;2023-02-08T10:06:39;27.63;;;17.87;;
37449;SDS011;23309;52.582;13.406;2023-02-08T10:09:05;33.43;;;19.40;;
37449;SDS011;23309;52.582;13.406;2023-02-08T10:11:39;32.80;;;19.77;;
37449;SDS011;23309;52.582;13.406;2023-02-08T10:14:24;28.27;;;19.03;;
37449;SDS011;23309;52.582;13.406;2023-02-08T10:31:07;29.90;;;18.63;;
37449;SDS011;23309;52.582;13.406;2023-02-08T10:33:46;31.30;;;19.93;;
37449;SDS011;23309;52.582;13.406;2023-02-08T10:36:20;29.87;;;19.00;;
37449;SDS011;23309;52.582;13.406;2023-02-08T10:38:48;30.07;;;20.10;;
37449;SDS011;23309;52.582;13.406;2023-02-08T10:41:20;32.00;;;19.80;;
37449;SDS011;23309;52.582;13.406;2023-02-08T10:43:54;33.27;;;20.37;;
37449;SDS011;23309;52.582;13.406;2023-02-08T10:46:37;35.73;;;23.10;;
37449;SDS011;23309;52.582;13.406;2023-02-08T10:52:10;32.83;;;20.60;;
37449;SDS011;23309;52.582;13.406;2023-02-08T10:54:36;33.30;;;22.03;;
37449;SDS011;23309;52.582;13.406;2023-02-08T10:57:03;36.60;;;21.40;;
37449;SDS011;23309;52.582;13.406;2023-02-08T10:59:35;37.50;;;20.97;;
37449;SDS011;23309;52.582;13.406;2023-02-08T11:02:21;34.07;;;21.60;;
37449;SDS011;23309;52.582;13.406;2023-02-08T11:04:58;35.93;;;21.93;;
37449;SDS011;23309;52.582;13.406;2023-02-08T11:07:29;32.13;;;22.07;;
37449;SDS011;23309;52.582;13.406;2023-02-08T11:10:11;38.40;;;23.40;;
37449;SDS011;23309;52.582;13.406;2023-02-08T11:13:45;33.80;;;21.33;;
37449;SDS011;23309;52.582;13.406;2023-02-08T11:15:42;31.53;;;20.67;;
37449;SDS011;23309;52.582;13.406;2023-02-08T11:18:23;31.33;;;20.90;;
37449;SDS011;23309;52.582;13.406;2023-02-08T11:20:55;30.00;;;21.07;;
37449;SDS011;23309;52.582;13.406;2023-02-08T11:23:24;34.13;;;20.93;;
37449;SDS011;23309;52.582;13.406;2023-02-08T11:25:54;35.93;;;23.37;;
37449;SDS011;23309;52.582;13.406;2023-02-08T11:28:44;34.23;;;22.00;;
37449;SDS011;23309;52.582;13.406;2023-02-08T11:31:22;34.37;;;21.97;;
37449;SDS011;23309;52.582;13.406;2023-02-08T11:36:24;30.30;;;21.63;;
37449;SDS011;23309;52.582;13.406;2023-02-08T11:38:50;33.77;;;22.57;;
37449;SDS011;23309;52.582;13.406;2023-02-08T11:41:16;31.90;;;20.63;;
37449;SDS011;23309;52.582;13.406;2023-02-08T11:43:48;33.53;;;21.90;;
37449;SDS011;23309;52.582;13.406;2023-02-08T11:46:23;32.10;;;21.40;;
37449;SDS011;23309;52.582;13.406;2023-02-08T11:48:51;33.97;;;21.07;;
37449;SDS011;23309;52.582;13.406;2023-02-08T11:53:53;33.43;;;20.60;;
37449;SDS011;23309;52.582;13.406;2023-02-08T11:56:20;33.23;;;20.57;;
37449;SDS011;23309;52.582;13.406;2023-02-08T12:01:37;31.17;;;20.80;;
37449;SDS011;23309;52.582;13.406;2023-02-08T12:04:04;34.77;;;20.10;;
37449;SDS011;23309;52.582;13.406;2023-02-08T12:06:48;28.07;;;19.20;;
37449;SDS011;23309;52.582;13.406;2023-02-08T12:10:18;31.63;;;21.00;;
37449;SDS011;23309;52.582;13.406;2023-02-08T12:12:52;29.10;;;19.37;;
37449;SDS011;23309;52.582;13.406;2023-02-08T12:15:30;30.63;;;20.03;;
37449;SDS011;23309;52.582;13.406;2023-02-08T12:20:46;27.23;;;20.33;;
37449;SDS011;23309;52.582;13.406;2023-02-08T12:23:19;31.20;;;21.20;;
37449;SDS011;23309;52.582;13.406;2023-02-08T12:26:22;30.63;;;20.80;;
37449;SDS011;23309;52.582;13.406;2023-02-08T12:35:10;30.50;;;20.13;;
37449;SDS011;23309;52.582;13.406;2023-02-08T12:44:00;32.10;;;21.00;;
37449;SDS011;23309;52.582;13.406;2023-02-08T12:46:49;33.03;;;21.27;;
37449;SDS011;23309;52.582;13.406;2023-02-08T12:52:53;31.37;;;21.10;;
37449;SDS011;23309;52.582;13.406;2023-02-08T12:57:44;28.90;;;21.30;;
37449;SDS011;23309;52.582;13.406;2023-02-08T13:00:18;33.33;;;22.80;;
37449;SDS011;23309;52.582;13.406;2023-02-08T13:05:38;31.77;;;20.80;;
37449;SDS011;23309;52.582;13.406;2023-02-08T13:11:08;31.90;;;20.40;;
37449;SDS011;23309;52.582;13.406;2023-02-08T13:13:39;35.93;;;19.77;;
37449;SDS011;23309;52.582;13.406;2023-02-08T13:18:36;33.27;;;21.00;;
37449;SDS011;23309;52.582;13.406;2023-02-08T13:21:27;33.60;;;20.10;;
37449;SDS011;23309;52.582;13.406;2023-02-08T13:23:54;36.53;;;21.90;;
37449;SDS011;23309;52.582;13.406;2023-02-08T13:26:28;30.23;;;20.83;;
37449;SDS011;23309;52.582;13.406;2023-02-08T13:28:56;29.80;;;19.80;;
37449;SDS011;23309;52.582;13.406;2023-02-08T13:31:28;31.57;;;19.67;;
37449;SDS011;23309;52.582;13.406;2023-02-08T13:33:57;32.20;;;20.50;;
37449;SDS011;23309;52.582;13.406;2023-02-08T13:36:26;30.00;;;20.20;;
37449;SDS011;23309;52.582;13.406;2023-02-08T13:39:00;27.17;;;19.67;;
37449;SDS011;23309;52.582;13.406;2023-02-08T13:41:28;31.17;;;20.80;;
37449;SDS011;23309;52.582;13.406;2023-02-08T13:44:08;27.90;;;19.20;;
37449;SDS011;23309;52.582;13.406;2023-02-08T13:46:43;30.90;;;20.53;;
37449;SDS011;23309;52.582;13.406;2023-02-08T13:52:11;31.50;;;20.63;;
37449;SDS011;23309;52.582;13.406;2023-02-08T13:54:38;29.17;;;19.33;;
37449;SDS011;23309;52.582;13.406;2023-02-08T13:57:26;28.37;;;20.07;;
37449;SDS011;23309;52.582;13.406;2023-02-08T14:00:16;28.93;;;19.77;;
37449;SDS011;23309;52.582;13.406;2023-02-08T14:02:59;32.60;;;21.90;;
37449;SDS011;23309;52.582;13.406;2023-02-08T14:05:33;30.87;;;20.93;;
37449;SDS011;23309;52.582;13.406;2023-02-08T14:08:07;33.13;;;20.20;;
37449;SDS011;23309;52.582;13.406;2023-02-08T14:11:21;30.77;;;20.57;;
37449;SDS011;23309;52.582;13.406;2023-02-08T14:13:53;31.00;;;20.07;;
37449;SDS011;23309;52.582;13.406;2023-02-08T14:22:00;30.17;;;19.90;;
37449;SDS011;23309;52.582;13.406;2023-02-08T14:32:33;35.97;;;20.20;;
37449;SDS011;23309;52.582;13.406;2023-02-08T14:35:03;31.30;;;19.70;;
37449;SDS011;23309;52.582;13.406;2023-02-08T14:37:31;32.13;;;21.17;;
37449;SDS011;23309;52.582;13.406;2023-02-08T14:42:57;36.60;;;20.10;;
37449;SDS011;23309;52.582;13.406;2023-02-08T14:45:33;29.23;;;19.63;;
37449;SDS011;23309;52.582;13.406;2023-02-08T14:50:32;30.73;;;19.13;;
37449;SDS011;23309;52.582;13.406;2023-02-08T14:56:23;26.00;;;17.90;;
37449;SDS011;23309;52.582;13.406;2023-02-08T15:01:39;31.53;;;19.90;;
37449;SDS011;23309;52.582;13.406;2023-02-08T15:04:06;24.47;;;18.00;;
37449;SDS011;23309;52.582;13.406;2023-02-08T15:09:01;29.00;;;19.00;;
37449;SDS011;23309;52.582;13.406;2023-02-08T15:11:31;31.17;;;18.77;;
37449;SDS011;23309;52.582;13.406;2023-02-08T15:13:58;29.77;;;18.10;;
37449;SDS011;23309;52.582;13.406;2023-02-08T15:16:35;26.70;;;16.53;;
37449;SDS011;23309;52.582;13.406;2023-02-08T15:19:05;30.90;;;17.40;;
37449;SDS011;23309;52.582;13.406;2023-02-08T15:21:31;29.80;;;17.37;;
37449;SDS011;23309;52.582;13.406;2023-02-08T15:24:02;27.60;;;16.03;;
37449;SDS011;23309;52.582;13.406;2023-02-08T15:26:32;26.20;;;16.87;;
37449;SDS011;23309;52.582;13.406;2023-02-08T15:28:57;27.53;;;14.90;;
37449;SDS011;23309;52.582;13.406;2023-02-08T15:31:31;26.87;;;15.10;;
37449;SDS011;23309;52.582;13.406;2023-02-08T15:33:57;28.53;;;17.37;;
37449;SDS011;23309;52.582;13.406;2023-02-08T15:36:27;26.60;;;15.47;;
37449;SDS011;23309;52.582;13.406;2023-02-08T15:39:00;29.40;;;16.17;;
37449;SDS011;23309;52.582;13.406;2023-02-08T15:41:32;30.30;;;16.23;;
37449;SDS011;23309;52.582;13.406;2023-02-08T15:46:38;29.73;;;17.03;;
37449;SDS011;23309;52.582;13.406;2023-02-08T15:49:05;28.93;;;17.30;;
37449;SDS011;23309;52.582;13.406;2023-02-08T15:51:31;30.10;;;18.40;;
37449;SDS011;23309;52.582;13.406;2023-02-08T15:53:57;28.83;;;17.37;;
37449;SDS011;23309;52.582;13.406;2023-02-08T15:56:28;33.47;;;17.40;;
37449;SDS011;23309;52.582;13.406;2023-02-08T15:58:59;31.03;;;17.83;;
37449;SDS011;23309;52.582;13.406;2023-02-08T16:01:26;27.13;;;16.10;;
37449;SDS011;23309;52.582;13.406;2023-02-08T16:03:55;27.57;;;16.90;;
37449;SDS011;23309;52.582;13.406;2023-02-08T16:06:23;27.83;;;17.30;;
37449;SDS011;23309;52.582;13.406;2023-02-08T16:08:54;27.70;;;16.70;;
37449;SDS011;23309;52.582;13.406;2023-02-08T16:11:22;26.00;;;17.17;;
37449;SDS011;23309;52.582;13.406;2023-02-08T16:13:50;23.50;;;15.37;;
37449;SDS011;23309;52.582;13.406;2023-02-08T16:16:21;28.33;;;16.10;;
37449;SDS011;23309;52.582;13.406;2023-02-08T16:19:05;27.57;;;17.00;;
37449;SDS011;23309;52.582;13.406;2023-02-08T16:21:46;26.43;;;15.83;;
37449;SDS011;23309;52.582;13.406;2023-02-08T16:29:14;29.33;;;16.80;;
37449;SDS011;23309;52.582;13.406;2023-02-08T16:31:41;26.00;;;16.13;;
37449;SDS011;23309;52.582;13.406;2023-02-08T16:34:16;34.87;;;16.73;;
37449;SDS011;23309;52.582;13.406;2023-02-08T16:36:47;26.60;;;15.80;;
37449;SDS011;23309;52.582;13.406;2023-02-08T16:44:27;26.77;;;16.03;;
37449;SDS011;23309;52.582;13.406;2023-02-08T16:46:55;27.00;;;15.33;;
37449;SDS011;23309;52.582;13.406;2023-02-08T16:49:21;29.60;;;16.47;;
37449;SDS011;23309;52.582;13.406;2023-02-08T16:51:47;27.80;;;16.90;;
37449;SDS011;23309;52.582;13.406;2023-02-08T16:54:19;25.70;;;15.30;;
37449;SDS011;23309;52.582;13.406;2023-02-08T16:56:45;27.10;;;16.50;;
37449;SDS011;23309;52.582;13.406;2023-02-08T16:59:13;27.33;;;16.10;;
37449;SDS011;23309;52.582;13.406;2023-02-08T17:01:40;27.10;;;15.77;;
37449;SDS011;23309;52.582;13.406;2023-02-08T17:04:10;26.93;;;15.33;;
37449;SDS011;23309;52.582;13.406;2023-02-08T17:06:36;25.33;;;15.37;;
37449;SDS011;23309;52.582;13.406;2023-02-08T17:09:03;26.07;;;15.07;;
37449;SDS011;23309;52.582;13.406;2023-02-08T17:11:29;24.30;;;15.23;;
37449;SDS011;23309;52.582;13.406;2023-02-08T17:13:55;26.13;;;15.80;;
37449;SDS011;23309;52.582;13.406;2023-02-08T17:16:23;26.53;;;16.40;;
37449;SDS011;23309;52.582;13.406;2023-02-08T17:18:50;30.73;;;17.03;;
37449;SDS011;23309;52.582;13.406;2023-02-08T17:21:16;27.17;;;16.20;;
37449;SDS011;23309;52.582;13.406;2023-02-08T17:23:42;26.60;;;16.80;;
37449;SDS011;23309;52.582;13.406;2023-02-08T17:26:10;28.63;;;16.57;;
37449;SDS011;23309;52.582;13.406;2023-02-08T17:28:43;25.80;;;16.20;;
37449;SDS011;23309;52.582;13.406;2023-02-08T17:31:12;25.47;;;15.90;;
37449;SDS011;23309;52.582;13.406;2023-02-08T17:33:38;27.33;;;16.67;;
37449;SDS011;23309;52.582;13.406;2023-02-08T17:36:05;29.00;;;17.17;;
37449;SDS011;23309;52.582;13.406;2023-02-08T17:38:32;25.20;;;15.53;;
37449;SDS011;23309;52.582;13.406;2023-02-08T17:41:01;26.87;;;16.03;;
37449;SDS011;23309;52.582;13.406;2023-02-08T17:43:27;26.08;;;15.68;;
37449;SDS011;23309;52.582;13.406;2023-02-08T17:45:53;27.93;;;15.47;;
37449;SDS011;23309;52.582;13.406;2023-02-08T17:48:19;32.27;;;16.63;;
37449;SDS011;23309;52.582;13.406;2023-02-08T17:50:44;26.97;;;15.53;;
37449;SDS011;23309;52.582;13.406;2023-02-08T17:53:14;26.77;;;16.27;;
37449;SDS011;23309;52.582;13.406;2023-02-08T17:55:41;26.37;;;16.20;;
37449;SDS011;23309;52.582;13.406;2023-02-08T17:58:07;27.63;;;17.00;;
37449;SDS011;23309;52.582;13.406;2023-02-08T18:00:33;28.63;;;15.87;;
37449;SDS011;23309;52.582;13.406;2023-02-08T18:02:58;26.73;;;16.10;;
37449;SDS011;23309;52.582;13.406;2023-02-08T18:05:24;32.07;;;17.00;;
37449;SDS011;23309;52.582;13.406;2023-02-08T18:07:51;26.93;;;15.87;;
37449;SDS011;23309;52.582;13.406;2023-02-08T18:10:18;28.87;;;15.30;;
37449;SDS011;23309;52.582;13.406;2023-02-08T18:12:43;30.70;;;14.93;;
37449;SDS011;23309;52.582;13.406;2023-02-08T18:15:10;24.73;;;15.37;;
37449;SDS011;23309;52.582;13.406;2023-02-08T18:17:38;27.20;;;16.63;;
37449;SDS011;23309;52.582;13.406;2023-02-08T18:20:04;25.97;;;15.03;;
37449;SDS011;23309;52.582;13.406;2023-02-08T18:22:30;24.73;;;14.90;;
37449;SDS011;23309;52.582;13.406;2023-02-08T18:24:56;23.83;;;15.10;;
37449;SDS011;23309;52.582;13.406;2023-02-08T18:27:22;25.57;;;14.07;;
37449;SDS011;23309;52.582;13.406;2023-02-08T18:29:49;27.23;;;15.77;;
37449;SDS011;23309;52.582;13.406;2023-02-08T18:32:15;25.83;;;14.77;;
37449;SDS011;23309;52.582;13.406;2023-02-08T18:34:41;23.17;;;15.30;;